sensor_id;sensor_type;location;lat;lon;timestamp;P1;durP1;ratioP1;P2;durP2;ratioP2
24407;SDS011;12542;50.924;4.516;2023-07-20T00:01:58;7.55;;;3.08;;
24407;SDS011;12542;50.924;4.516;2023-07-20T00:04:24;8.05;;;2.40;;
24407;SDS011;12542;50.924;4.516;2023-07-20T00:06:50;9.15;;;3.08;;
24407;SDS011;12542;50.924;4.516;2023-07-20T00:09:15;7.00;;;2.60;;
24407;SDS011;12542;50.924;4.516;2023-07-20T00:11:47;7.22;;;2.50;;
24407;SDS011;12542;50.924;4.516;2023-07-20T00:14:16;6.03;;;3.08;;
24407;SDS011;12542;50.924;4.516;2023-07-20T00:16:43;7.95;;;2.83;;
24407;SDS011;12542;50.924;4.516;2023-07-20T00:19:20;7.47;;;2.10;;
24407;SDS011;12542;50.924;4.516;2023-07-20T00:21:49;7.38;;;2.90;;
24407;SDS011;12542;50.924;4.516;2023-07-20T00:24:15;7.30;;;2.50;;
24407;SDS011;12542;50.924;4.516;2023-07-20T00:26:43;10.10;;;3.17;;
24407;SDS011;12542;50.924;4.516;2023-07-20T00:29:09;6.68;;;2.30;;
24407;SDS011;12542;50.924;4.516;2023-07-20T00:31:35;7.88;;;2.50;;
24407;SDS011;12542;50.924;4.516;2023-07-20T00:34:02;5.28;;;2.45;;
24407;SDS011;12542;50.924;4.516;2023-07-20T00:36:29;9.88;;;3.50;;
24407;SDS011;12542;50.924;4.516;2023-07-20T00:38:55;5.55;;;2.65;;
24407;SDS011;12542;50.924;4.516;2023-07-20T00:41:21;9.77;;;2.75;;
24407;SDS011;12542;50.924;4.516;2023-07-20T00:43:47;8.25;;;2.60;;
24407;SDS011;12542;50.924;4.516;2023-07-20T00:46:13;7.50;;;2.50;;
24407;SDS011;12542;50.924;4.516;2023-07-20T00:48:39;5.15;;;2.15;;
24407;SDS011;12542;50.924;4.516;2023-07-20T00:51:06;9.68;;;2.25;;
24407;SDS011;12542;50.924;4.516;2023-07-20T00:53:32;5.53;;;2.15;;
24407;SDS011;12542;50.924;4.516;2023-07-20T00:55:58;11.02;;;2.80;;
24407;SDS011;12542;50.924;4.516;2023-07-20T00:58:24;7.38;;;2.70;;
24407;SDS011;12542;50.924;4.516;2023-07-20T01:00:50;8.18;;;2.35;;
24407;SDS011;12542;50.924;4.516;2023-07-20T01:03:17;6.50;;;2.45;;
24407;SDS011;12542;50.924;4.516;2023-07-20T01:14:08;7.47;;;3.08;;
24407;SDS011;12542;50.924;4.516;2023-07-20T01:16:34;7.57;;;2.60;;
24407;SDS011;12542;50.924;4.516;2023-07-20T01:19:02;9.85;;;3.13;;
24407;SDS011;12542;50.924;4.516;2023-07-20T01:24:30;9.02;;;3.00;;
24407;SDS011;12542;50.924;4.516;2023-07-20T01:32:36;9.35;;;2.92;;
24407;SDS011;12542;50.924;4.516;2023-07-20T01:35:07;9.45;;;3.20;;
24407;SDS011;12542;50.924;4.516;2023-07-20T01:37:39;9.27;;;3.40;;
24407;SDS011;12542;50.924;4.516;2023-07-20T01:40:08;6.00;;;2.97;;
24407;SDS011;12542;50.924;4.516;2023-07-20T01:42:35;9.85;;;3.75;;
24407;SDS011;12542;50.924;4.516;2023-07-20T01:45:01;6.05;;;2.90;;
24407;SDS011;12542;50.924;4.516;2023-07-20T01:47:27;8.38;;;2.88;;
24407;SDS011;12542;50.924;4.516;2023-07-20T01:49:52;11.00;;;3.70;;
24407;SDS011;12542;50.924;4.516;2023-07-20T01:52:20;8.93;;;3.60;;
24407;SDS011;12542;50.924;4.516;2023-07-20T01:54:46;8.75;;;3.33;;
24407;SDS011;12542;50.924;4.516;2023-07-20T01:57:14;9.80;;;3.35;;
24407;SDS011;12542;50.924;4.516;2023-07-20T01:59:40;10.38;;;3.30;;
24407;SDS011;12542;50.924;4.516;2023-07-20T02:02:05;9.82;;;3.13;;
24407;SDS011;12542;50.924;4.516;2023-07-20T02:04:33;6.57;;;3.15;;
24407;SDS011;12542;50.924;4.516;2023-07-20T02:06:59;10.15;;;4.15;;
24407;SDS011;12542;50.924;4.516;2023-07-20T02:09:25;10.68;;;4.25;;
24407;SDS011;12542;50.924;4.516;2023-07-20T02:11:51;7.03;;;3.20;;
24407;SDS011;12542;50.924;4.516;2023-07-20T02:14:16;12.15;;;4.55;;
24407;SDS011;12542;50.924;4.516;2023-07-20T02:16:42;9.25;;;3.85;;
24407;SDS011;12542;50.924;4.516;2023-07-20T02:19:08;11.63;;;4.13;;
24407;SDS011;12542;50.924;4.516;2023-07-20T02:21:33;13.60;;;3.95;;
24407;SDS011;12542;50.924;4.516;2023-07-20T02:23:59;8.23;;;4.50;;
24407;SDS011;12542;50.924;4.516;2023-07-20T02:26:25;12.55;;;4.15;;
24407;SDS011;12542;50.924;4.516;2023-07-20T02:28:51;8.35;;;3.90;;
24407;SDS011;12542;50.924;4.516;2023-07-20T02:31:16;15.60;;;5.32;;
24407;SDS011;12542;50.924;4.516;2023-07-20T02:33:42;13.65;;;5.20;;
24407;SDS011;12542;50.924;4.516;2023-07-20T02:36:08;9.05;;;5.05;;
24407;SDS011;12542;50.924;4.516;2023-07-20T02:38:33;11.05;;;5.40;;
24407;SDS011;12542;50.924;4.516;2023-07-20T02:40:59;13.02;;;5.63;;
24407;SDS011;12542;50.924;4.516;2023-07-20T02:43:24;12.00;;;5.25;;
24407;SDS011;12542;50.924;4.516;2023-07-20T02:45:50;10.65;;;5.22;;
24407;SDS011;12542;50.924;4.516;2023-07-20T02:48:16;12.00;;;5.75;;
24407;SDS011;12542;50.924;4.516;2023-07-20T02:50:43;16.88;;;6.15;;
24407;SDS011;12542;50.924;4.516;2023-07-20T02:53:09;15.43;;;6.25;;
24407;SDS011;12542;50.924;4.516;2023-07-20T02:55:34;14.07;;;6.30;;
24407;SDS011;12542;50.924;4.516;2023-07-20T02:58:00;12.50;;;5.60;;
24407;SDS011;12542;50.924;4.516;2023-07-20T03:00:26;15.88;;;6.60;;
24407;SDS011;12542;50.924;4.516;2023-07-20T03:02:54;13.80;;;6.18;;
24407;SDS011;12542;50.924;4.516;2023-07-20T03:05:21;12.48;;;5.72;;
24407;SDS011;12542;50.924;4.516;2023-07-20T03:07:50;14.70;;;6.28;;
24407;SDS011;12542;50.924;4.516;2023-07-20T03:10:16;12.27;;;6.15;;
24407;SDS011;12542;50.924;4.516;2023-07-20T03:12:42;13.00;;;6.32;;
24407;SDS011;12542;50.924;4.516;2023-07-20T03:15:08;12.23;;;5.82;;
24407;SDS011;12542;50.924;4.516;2023-07-20T03:17:34;13.90;;;6.35;;
24407;SDS011;12542;50.924;4.516;2023-07-20T03:20:00;16.25;;;6.38;;
24407;SDS011;12542;50.924;4.516;2023-07-20T03:22:26;17.00;;;7.00;;
24407;SDS011;12542;50.924;4.516;2023-07-20T03:24:51;15.88;;;6.40;;
24407;SDS011;12542;50.924;4.516;2023-07-20T03:27:17;20.02;;;6.35;;
24407;SDS011;12542;50.924;4.516;2023-07-20T03:29:43;15.32;;;7.22;;
24407;SDS011;12542;50.924;4.516;2023-07-20T03:32:09;13.80;;;7.10;;
24407;SDS011;12542;50.924;4.516;2023-07-20T03:34:35;13.43;;;6.85;;
24407;SDS011;12542;50.924;4.516;2023-07-20T03:37:01;15.48;;;6.95;;
24407;SDS011;12542;50.924;4.516;2023-07-20T03:39:29;13.05;;;7.05;;
24407;SDS011;12542;50.924;4.516;2023-07-20T03:41:55;12.35;;;6.35;;
24407;SDS011;12542;50.924;4.516;2023-07-20T03:44:24;16.08;;;7.85;;
24407;SDS011;12542;50.924;4.516;2023-07-20T03:46:51;15.82;;;8.23;;
24407;SDS011;12542;50.924;4.516;2023-07-20T03:49:19;14.32;;;7.55;;
24407;SDS011;12542;50.924;4.516;2023-07-20T03:51:45;13.85;;;7.28;;
24407;SDS011;12542;50.924;4.516;2023-07-20T03:54:10;18.88;;;7.75;;
24407;SDS011;12542;50.924;4.516;2023-07-20T03:56:36;17.45;;;7.60;;
24407;SDS011;12542;50.924;4.516;2023-07-20T03:59:01;16.73;;;7.65;;
24407;SDS011;12542;50.924;4.516;2023-07-20T04:01:27;17.00;;;8.70;;
24407;SDS011;12542;50.924;4.516;2023-07-20T04:03:53;15.88;;;8.40;;
24407;SDS011;12542;50.924;4.516;2023-07-20T04:06:18;17.83;;;8.93;;
24407;SDS011;12542;50.924;4.516;2023-07-20T04:08:44;20.17;;;9.13;;
24407;SDS011;12542;50.924;4.516;2023-07-20T04:11:12;20.65;;;7.95;;
24407;SDS011;12542;50.924;4.516;2023-07-20T04:13:38;17.10;;;8.48;;
24407;SDS011;12542;50.924;4.516;2023-07-20T04:16:04;15.68;;;8.43;;
24407;SDS011;12542;50.924;4.516;2023-07-20T04:18:33;17.27;;;8.10;;
24407;SDS011;12542;50.924;4.516;2023-07-20T04:20:58;15.75;;;8.30;;
24407;SDS011;12542;50.924;4.516;2023-07-20T04:23:24;12.65;;;8.65;;
24407;SDS011;12542;50.924;4.516;2023-07-20T04:25:50;15.02;;;8.32;;
24407;SDS011;12542;50.924;4.516;2023-07-20T04:28:16;16.92;;;8.63;;
24407;SDS011;12542;50.924;4.516;2023-07-20T04:30:43;14.82;;;8.10;;
24407;SDS011;12542;50.924;4.516;2023-07-20T04:33:08;13.98;;;8.55;;
24407;SDS011;12542;50.924;4.516;2023-07-20T04:38:19;17.23;;;8.80;;
24407;SDS011;12542;50.924;4.516;2023-07-20T04:40:46;14.65;;;8.48;;
24407;SDS011;12542;50.924;4.516;2023-07-20T04:43:14;15.48;;;9.07;;
24407;SDS011;12542;50.924;4.516;2023-07-20T04:45:40;16.85;;;8.93;;
24407;SDS011;12542;50.924;4.516;2023-07-20T04:48:07;17.10;;;8.32;;
24407;SDS011;12542;50.924;4.516;2023-07-20T04:50:38;17.05;;;9.38;;
24407;SDS011;12542;50.924;4.516;2023-07-20T04:53:05;17.88;;;9.25;;
24407;SDS011;12542;50.924;4.516;2023-07-20T04:55:31;16.45;;;8.02;;
24407;SDS011;12542;50.924;4.516;2023-07-20T04:57:59;17.77;;;9.40;;
24407;SDS011;12542;50.924;4.516;2023-07-20T05:00:25;17.45;;;8.80;;
24407;SDS011;12542;50.924;4.516;2023-07-20T05:02:51;14.65;;;9.23;;
24407;SDS011;12542;50.924;4.516;2023-07-20T05:05:17;17.48;;;9.60;;
24407;SDS011;12542;50.924;4.516;2023-07-20T05:07:42;12.38;;;8.38;;
24407;SDS011;12542;50.924;4.516;2023-07-20T05:10:08;13.93;;;8.88;;
24407;SDS011;12542;50.924;4.516;2023-07-20T05:12:34;16.50;;;8.80;;
24407;SDS011;12542;50.924;4.516;2023-07-20T05:15:00;14.10;;;8.45;;
24407;SDS011;12542;50.924;4.516;2023-07-20T05:17:26;12.65;;;8.38;;
24407;SDS011;12542;50.924;4.516;2023-07-20T05:19:52;13.77;;;8.77;;
24407;SDS011;12542;50.924;4.516;2023-07-20T05:22:17;16.98;;;9.20;;
24407;SDS011;12542;50.924;4.516;2023-07-20T05:24:43;20.92;;;8.50;;
24407;SDS011;12542;50.924;4.516;2023-07-20T05:27:09;13.55;;;8.73;;
24407;SDS011;12542;50.924;4.516;2023-07-20T05:29:34;16.45;;;9.48;;
24407;SDS011;12542;50.924;4.516;2023-07-20T05:32:00;17.23;;;9.48;;
24407;SDS011;12542;50.924;4.516;2023-07-20T05:34:26;17.55;;;9.13;;
24407;SDS011;12542;50.924;4.516;2023-07-20T05:36:51;19.17;;;9.05;;
24407;SDS011;12542;50.924;4.516;2023-07-20T05:39:17;23.58;;;9.18;;
24407;SDS011;12542;50.924;4.516;2023-07-20T05:41:43;15.38;;;9.07;;
24407;SDS011;12542;50.924;4.516;2023-07-20T05:44:09;18.50;;;10.18;;
24407;SDS011;12542;50.924;4.516;2023-07-20T05:46:34;18.88;;;10.00;;
24407;SDS011;12542;50.924;4.516;2023-07-20T05:49:00;18.48;;;9.90;;
24407;SDS011;12542;50.924;4.516;2023-07-20T05:51:26;18.08;;;10.63;;
24407;SDS011;12542;50.924;4.516;2023-07-20T05:53:52;17.23;;;9.65;;
24407;SDS011;12542;50.924;4.516;2023-07-20T05:56:18;21.13;;;9.65;;
24407;SDS011;12542;50.924;4.516;2023-07-20T05:58:44;17.40;;;9.40;;
24407;SDS011;12542;50.924;4.516;2023-07-20T06:01:09;16.85;;;9.68;;
24407;SDS011;12542;50.924;4.516;2023-07-20T06:03:35;14.25;;;9.43;;
24407;SDS011;12542;50.924;4.516;2023-07-20T06:06:03;15.35;;;9.20;;
24407;SDS011;12542;50.924;4.516;2023-07-20T06:08:34;18.45;;;10.05;;
24407;SDS011;12542;50.924;4.516;2023-07-20T06:10:59;10.43;;;7.35;;
24407;SDS011;12542;50.924;4.516;2023-07-20T06:13:25;14.43;;;8.15;;
24407;SDS011;12542;50.924;4.516;2023-07-20T06:15:51;17.83;;;8.70;;
24407;SDS011;12542;50.924;4.516;2023-07-20T06:18:17;18.08;;;7.80;;
24407;SDS011;12542;50.924;4.516;2023-07-20T06:20:48;13.75;;;8.55;;
24407;SDS011;12542;50.924;4.516;2023-07-20T06:23:19;14.80;;;8.95;;
24407;SDS011;12542;50.924;4.516;2023-07-20T06:25:45;16.75;;;8.63;;
24407;SDS011;12542;50.924;4.516;2023-07-20T06:28:11;16.73;;;7.85;;
24407;SDS011;12542;50.924;4.516;2023-07-20T06:30:38;15.20;;;6.97;;
24407;SDS011;12542;50.924;4.516;2023-07-20T06:33:04;14.95;;;7.00;;
24407;SDS011;12542;50.924;4.516;2023-07-20T06:35:29;13.75;;;7.10;;
24407;SDS011;12542;50.924;4.516;2023-07-20T06:37:55;11.38;;;6.22;;
24407;SDS011;12542;50.924;4.516;2023-07-20T06:40:21;12.18;;;6.57;;
24407;SDS011;12542;50.924;4.516;2023-07-20T06:42:46;12.13;;;6.90;;
24407;SDS011;12542;50.924;4.516;2023-07-20T06:45:12;8.82;;;6.43;;
24407;SDS011;12542;50.924;4.516;2023-07-20T06:47:38;8.27;;;6.43;;
24407;SDS011;12542;50.924;4.516;2023-07-20T06:50:05;12.77;;;6.00;;
24407;SDS011;12542;50.924;4.516;2023-07-20T06:52:32;9.45;;;6.65;;
24407;SDS011;12542;50.924;4.516;2023-07-20T06:54:58;13.23;;;7.25;;
24407;SDS011;12542;50.924;4.516;2023-07-20T06:57:25;11.15;;;7.05;;
24407;SDS011;12542;50.924;4.516;2023-07-20T06:59:52;9.73;;;6.85;;
24407;SDS011;12542;50.924;4.516;2023-07-20T07:02:23;11.77;;;6.97;;
24407;SDS011;12542;50.924;4.516;2023-07-20T07:04:50;10.73;;;6.50;;
24407;SDS011;12542;50.924;4.516;2023-07-20T07:07:16;11.13;;;6.65;;
24407;SDS011;12542;50.924;4.516;2023-07-20T07:09:42;11.98;;;6.78;;
24407;SDS011;12542;50.924;4.516;2023-07-20T07:12:10;10.77;;;6.60;;
24407;SDS011;12542;50.924;4.516;2023-07-20T07:14:37;11.45;;;6.55;;
24407;SDS011;12542;50.924;4.516;2023-07-20T07:17:04;10.93;;;6.57;;
24407;SDS011;12542;50.924;4.516;2023-07-20T07:19:30;9.60;;;6.35;;
24407;SDS011;12542;50.924;4.516;2023-07-20T07:21:58;9.98;;;6.43;;
24407;SDS011;12542;50.924;4.516;2023-07-20T07:24:23;9.80;;;6.18;;
24407;SDS011;12542;50.924;4.516;2023-07-20T07:26:50;9.75;;;5.82;;
24407;SDS011;12542;50.924;4.516;2023-07-20T07:29:15;9.55;;;4.60;;
24407;SDS011;12542;50.924;4.516;2023-07-20T07:31:41;8.77;;;5.18;;
24407;SDS011;12542;50.924;4.516;2023-07-20T07:34:06;7.75;;;4.93;;
24407;SDS011;12542;50.924;4.516;2023-07-20T07:36:32;7.55;;;5.20;;
24407;SDS011;12542;50.924;4.516;2023-07-20T07:38:58;6.63;;;4.95;;
24407;SDS011;12542;50.924;4.516;2023-07-20T07:41:24;8.50;;;5.32;;
24407;SDS011;12542;50.924;4.516;2023-07-20T07:43:49;6.72;;;4.75;;
24407;SDS011;12542;50.924;4.516;2023-07-20T07:46:15;7.13;;;4.88;;
24407;SDS011;12542;50.924;4.516;2023-07-20T07:48:42;8.43;;;5.22;;
24407;SDS011;12542;50.924;4.516;2023-07-20T07:51:07;8.57;;;4.80;;
24407;SDS011;12542;50.924;4.516;2023-07-20T07:53:33;4.82;;;3.75;;
24407;SDS011;12542;50.924;4.516;2023-07-20T07:56:01;4.78;;;3.30;;
24407;SDS011;12542;50.924;4.516;2023-07-20T07:58:28;3.35;;;2.50;;
24407;SDS011;12542;50.924;4.516;2023-07-20T08:00:53;7.57;;;2.97;;
24407;SDS011;12542;50.924;4.516;2023-07-20T08:03:19;3.58;;;2.70;;
24407;SDS011;12542;50.924;4.516;2023-07-20T08:05:45;5.07;;;3.17;;
24407;SDS011;12542;50.924;4.516;2023-07-20T08:08:11;5.45;;;2.83;;
24407;SDS011;12542;50.924;4.516;2023-07-20T08:10:36;4.13;;;2.58;;
24407;SDS011;12542;50.924;4.516;2023-07-20T08:13:02;4.30;;;2.15;;
24407;SDS011;12542;50.924;4.516;2023-07-20T08:15:28;3.72;;;1.55;;
24407;SDS011;12542;50.924;4.516;2023-07-20T08:17:54;2.97;;;1.73;;
24407;SDS011;12542;50.924;4.516;2023-07-20T08:20:21;5.07;;;1.60;;
24407;SDS011;12542;50.924;4.516;2023-07-20T08:22:51;3.95;;;1.40;;
24407;SDS011;12542;50.924;4.516;2023-07-20T08:25:21;3.78;;;1.25;;
24407;SDS011;12542;50.924;4.516;2023-07-20T08:27:54;2.00;;;0.90;;
24407;SDS011;12542;50.924;4.516;2023-07-20T08:30:23;1.25;;;0.70;;
24407;SDS011;12542;50.924;4.516;2023-07-20T08:32:48;5.10;;;1.52;;
24407;SDS011;12542;50.924;4.516;2023-07-20T08:35:14;2.60;;;1.10;;
24407;SDS011;12542;50.924;4.516;2023-07-20T08:37:40;2.25;;;1.00;;
24407;SDS011;12542;50.924;4.516;2023-07-20T08:40:09;2.25;;;0.65;;
24407;SDS011;12542;50.924;4.516;2023-07-20T08:42:36;2.17;;;1.10;;
24407;SDS011;12542;50.924;4.516;2023-07-20T08:45:04;3.67;;;1.20;;
24407;SDS011;12542;50.924;4.516;2023-07-20T08:47:33;1.35;;;0.77;;
24407;SDS011;12542;50.924;4.516;2023-07-20T08:49:59;1.50;;;0.93;;
24407;SDS011;12542;50.924;4.516;2023-07-20T08:52:31;2.08;;;1.08;;
24407;SDS011;12542;50.924;4.516;2023-07-20T08:54:59;2.72;;;0.77;;
24407;SDS011;12542;50.924;4.516;2023-07-20T08:57:28;1.85;;;1.00;;
24407;SDS011;12542;50.924;4.516;2023-07-20T08:59:54;2.13;;;0.77;;
24407;SDS011;12542;50.924;4.516;2023-07-20T09:02:21;1.52;;;0.80;;
24407;SDS011;12542;50.924;4.516;2023-07-20T09:04:51;2.05;;;0.60;;
24407;SDS011;12542;50.924;4.516;2023-07-20T09:07:17;1.73;;;0.70;;
24407;SDS011;12542;50.924;4.516;2023-07-20T09:09:45;2.28;;;0.80;;
24407;SDS011;12542;50.924;4.516;2023-07-20T09:12:14;3.00;;;0.90;;
24407;SDS011;12542;50.924;4.516;2023-07-20T09:14:42;1.02;;;0.52;;
24407;SDS011;12542;50.924;4.516;2023-07-20T09:17:12;2.33;;;0.73;;
24407;SDS011;12542;50.924;4.516;2023-07-20T09:19:39;3.10;;;1.27;;
24407;SDS011;12542;50.924;4.516;2023-07-20T09:22:10;2.17;;;1.10;;
24407;SDS011;12542;50.924;4.516;2023-07-20T09:24:36;0.75;;;0.70;;
24407;SDS011;12542;50.924;4.516;2023-07-20T09:27:01;2.15;;;0.73;;
24407;SDS011;12542;50.924;4.516;2023-07-20T09:29:30;2.42;;;0.90;;
24407;SDS011;12542;50.924;4.516;2023-07-20T09:34:29;1.58;;;0.70;;
24407;SDS011;12542;50.924;4.516;2023-07-20T09:36:58;2.97;;;0.73;;
24407;SDS011;12542;50.924;4.516;2023-07-20T09:39:25;2.55;;;0.75;;
24407;SDS011;12542;50.924;4.516;2023-07-20T09:41:54;3.00;;;0.70;;
24407;SDS011;12542;50.924;4.516;2023-07-20T09:44:27;2.80;;;1.25;;
24407;SDS011;12542;50.924;4.516;2023-07-20T09:46:53;4.38;;;1.27;;
24407;SDS011;12542;50.924;4.516;2023-07-20T09:49:20;4.05;;;1.02;;
24407;SDS011;12542;50.924;4.516;2023-07-20T09:51:46;1.50;;;0.80;;
24407;SDS011;12542;50.924;4.516;2023-07-20T09:54:13;1.77;;;0.77;;
24407;SDS011;12542;50.924;4.516;2023-07-20T09:56:40;2.50;;;0.65;;
24407;SDS011;12542;50.924;4.516;2023-07-20T09:59:07;1.95;;;0.90;;
24407;SDS011;12542;50.924;4.516;2023-07-20T10:01:32;2.38;;;0.77;;
24407;SDS011;12542;50.924;4.516;2023-07-20T10:04:00;3.13;;;0.95;;
24407;SDS011;12542;50.924;4.516;2023-07-20T10:06:29;1.65;;;0.70;;
24407;SDS011;12542;50.924;4.516;2023-07-20T10:09:00;1.33;;;0.50;;
24407;SDS011;12542;50.924;4.516;2023-07-20T10:11:29;0.88;;;0.50;;
24407;SDS011;12542;50.924;4.516;2023-07-20T10:13:56;2.17;;;0.68;;
24407;SDS011;12542;50.924;4.516;2023-07-20T10:16:29;1.45;;;0.50;;
24407;SDS011;12542;50.924;4.516;2023-07-20T10:21:44;1.52;;;0.50;;
24407;SDS011;12542;50.924;4.516;2023-07-20T10:24:13;0.80;;;0.60;;
24407;SDS011;12542;50.924;4.516;2023-07-20T10:26:40;0.98;;;0.50;;
24407;SDS011;12542;50.924;4.516;2023-07-20T10:29:05;2.13;;;0.70;;
24407;SDS011;12542;50.924;4.516;2023-07-20T10:31:32;2.65;;;0.50;;
24407;SDS011;12542;50.924;4.516;2023-07-20T10:33:58;2.40;;;1.00;;
24407;SDS011;12542;50.924;4.516;2023-07-20T10:36:25;2.88;;;0.50;;
24407;SDS011;12542;50.924;4.516;2023-07-20T10:38:57;1.67;;;0.40;;
24407;SDS011;12542;50.924;4.516;2023-07-20T10:41:33;1.85;;;0.45;;
24407;SDS011;12542;50.924;4.516;2023-07-20T10:44:04;0.95;;;0.50;;
24407;SDS011;12542;50.924;4.516;2023-07-20T10:49:04;1.10;;;0.60;;
24407;SDS011;12542;50.924;4.516;2023-07-20T10:56:41;2.00;;;0.50;;
24407;SDS011;12542;50.924;4.516;2023-07-20T10:59:18;2.05;;;0.93;;
24407;SDS011;12542;50.924;4.516;2023-07-20T11:01:59;0.95;;;0.40;;
24407;SDS011;12542;50.924;4.516;2023-07-20T11:04:37;1.58;;;0.65;;
24407;SDS011;12542;50.924;4.516;2023-07-20T11:07:05;1.50;;;0.40;;
24407;SDS011;12542;50.924;4.516;2023-07-20T11:09:34;3.00;;;0.30;;
24407;SDS011;12542;50.924;4.516;2023-07-20T11:14:39;1.80;;;0.40;;
24407;SDS011;12542;50.924;4.516;2023-07-20T11:17:30;0.65;;;0.40;;
24407;SDS011;12542;50.924;4.516;2023-07-20T11:19:57;3.83;;;0.40;;
24407;SDS011;12542;50.924;4.516;2023-07-20T11:22:30;2.28;;;0.43;;
24407;SDS011;12542;50.924;4.516;2023-07-20T11:24:56;1.65;;;0.50;;
24407;SDS011;12542;50.924;4.516;2023-07-20T11:27:23;1.33;;;0.47;;
24407;SDS011;12542;50.924;4.516;2023-07-20T11:29:49;1.23;;;0.40;;
24407;SDS011;12542;50.924;4.516;2023-07-20T11:32:24;0.95;;;0.30;;
24407;SDS011;12542;50.924;4.516;2023-07-20T11:34:50;2.38;;;0.85;;
24407;SDS011;12542;50.924;4.516;2023-07-20T11:37:16;2.03;;;0.82;;
24407;SDS011;12542;50.924;4.516;2023-07-20T11:39:42;1.48;;;0.47;;
24407;SDS011;12542;50.924;4.516;2023-07-20T11:42:08;1.38;;;0.52;;
24407;SDS011;12542;50.924;4.516;2023-07-20T11:44:36;1.10;;;0.50;;
24407;SDS011;12542;50.924;4.516;2023-07-20T11:47:11;1.83;;;0.60;;
24407;SDS011;12542;50.924;4.516;2023-07-20T11:49:38;1.45;;;0.40;;
24407;SDS011;12542;50.924;4.516;2023-07-20T11:52:05;2.03;;;0.50;;
24407;SDS011;12542;50.924;4.516;2023-07-20T11:54:41;1.45;;;0.50;;
24407;SDS011;12542;50.924;4.516;2023-07-20T11:57:20;2.80;;;0.80;;
24407;SDS011;12542;50.924;4.516;2023-07-20T11:59:56;1.65;;;0.60;;
24407;SDS011;12542;50.924;4.516;2023-07-20T12:02:22;1.15;;;0.50;;
24407;SDS011;12542;50.924;4.516;2023-07-20T12:04:51;2.03;;;0.80;;
24407;SDS011;12542;50.924;4.516;2023-07-20T12:07:18;1.48;;;1.10;;
24407;SDS011;12542;50.924;4.516;2023-07-20T12:09:44;2.75;;;0.85;;
24407;SDS011;12542;50.924;4.516;2023-07-20T12:12:28;1.58;;;0.60;;
24407;SDS011;12542;50.924;4.516;2023-07-20T12:14:53;1.00;;;0.50;;
24407;SDS011;12542;50.924;4.516;2023-07-20T12:17:19;1.33;;;0.63;;
24407;SDS011;12542;50.924;4.516;2023-07-20T12:19:45;3.08;;;0.90;;
24407;SDS011;12542;50.924;4.516;2023-07-20T12:22:11;1.45;;;0.85;;
24407;SDS011;12542;50.924;4.516;2023-07-20T12:24:37;2.33;;;0.60;;
24407;SDS011;12542;50.924;4.516;2023-07-20T12:27:03;1.85;;;0.65;;
24407;SDS011;12542;50.924;4.516;2023-07-20T12:29:29;1.50;;;0.70;;
24407;SDS011;12542;50.924;4.516;2023-07-20T12:31:56;0.95;;;0.38;;
24407;SDS011;12542;50.924;4.516;2023-07-20T12:34:22;2.10;;;0.70;;
24407;SDS011;12542;50.924;4.516;2023-07-20T12:36:48;1.73;;;0.75;;
24407;SDS011;12542;50.924;4.516;2023-07-20T12:39:13;0.93;;;0.47;;
24407;SDS011;12542;50.924;4.516;2023-07-20T12:41:39;1.00;;;0.57;;
24407;SDS011;12542;50.924;4.516;2023-07-20T12:44:05;1.60;;;0.80;;
24407;SDS011;12542;50.924;4.516;2023-07-20T12:46:30;0.47;;;0.35;;
24407;SDS011;12542;50.924;4.516;2023-07-20T12:49:00;2.75;;;0.70;;
24407;SDS011;12542;50.924;4.516;2023-07-20T12:51:25;1.98;;;0.70;;
24407;SDS011;12542;50.924;4.516;2023-07-20T12:53:51;1.55;;;0.65;;
24407;SDS011;12542;50.924;4.516;2023-07-20T12:56:17;4.20;;;0.70;;
24407;SDS011;12542;50.924;4.516;2023-07-20T12:58:42;1.90;;;0.50;;
24407;SDS011;12542;50.924;4.516;2023-07-20T13:01:08;2.58;;;0.70;;
24407;SDS011;12542;50.924;4.516;2023-07-20T13:03:33;2.00;;;0.60;;
24407;SDS011;12542;50.924;4.516;2023-07-20T13:06:01;0.85;;;0.50;;
24407;SDS011;12542;50.924;4.516;2023-07-20T13:08:27;6.88;;;0.80;;
24407;SDS011;12542;50.924;4.516;2023-07-20T13:10:55;1.67;;;0.85;;
24407;SDS011;12542;50.924;4.516;2023-07-20T13:13:21;1.00;;;0.60;;
24407;SDS011;12542;50.924;4.516;2023-07-20T13:15:47;4.15;;;2.28;;
24407;SDS011;12542;50.924;4.516;2023-07-20T13:18:13;2.50;;;1.20;;
24407;SDS011;12542;50.924;4.516;2023-07-20T13:20:41;1.00;;;0.70;;
24407;SDS011;12542;50.924;4.516;2023-07-20T13:23:07;2.38;;;0.68;;
24407;SDS011;12542;50.924;4.516;2023-07-20T13:25:34;0.60;;;0.50;;
24407;SDS011;12542;50.924;4.516;2023-07-20T13:28:01;2.80;;;0.90;;
24407;SDS011;12542;50.924;4.516;2023-07-20T13:30:29;3.30;;;0.80;;
24407;SDS011;12542;50.924;4.516;2023-07-20T13:32:56;3.65;;;0.80;;
24407;SDS011;12542;50.924;4.516;2023-07-20T13:35:21;0.95;;;0.70;;
24407;SDS011;12542;50.924;4.516;2023-07-20T13:37:47;1.10;;;0.88;;
24407;SDS011;12542;50.924;4.516;2023-07-20T13:40:14;1.08;;;0.70;;
24407;SDS011;12542;50.924;4.516;2023-07-20T13:42:42;2.63;;;0.77;;
24407;SDS011;12542;50.924;4.516;2023-07-20T13:45:07;2.58;;;0.77;;
24407;SDS011;12542;50.924;4.516;2023-07-20T13:47:33;1.30;;;0.82;;
24407;SDS011;12542;50.924;4.516;2023-07-20T13:49:59;1.60;;;0.90;;
24407;SDS011;12542;50.924;4.516;2023-07-20T13:52:26;1.48;;;0.80;;
24407;SDS011;12542;50.924;4.516;2023-07-20T13:54:53;2.50;;;1.10;;
24407;SDS011;12542;50.924;4.516;2023-07-20T13:57:18;2.70;;;1.10;;
24407;SDS011;12542;50.924;4.516;2023-07-20T13:59:44;3.10;;;1.00;;
24407;SDS011;12542;50.924;4.516;2023-07-20T14:02:10;1.80;;;1.08;;
24407;SDS011;12542;50.924;4.516;2023-07-20T14:04:36;3.60;;;1.20;;
24407;SDS011;12542;50.924;4.516;2023-07-20T14:07:01;2.17;;;1.38;;
24407;SDS011;12542;50.924;4.516;2023-07-20T14:09:27;2.17;;;1.00;;
24407;SDS011;12542;50.924;4.516;2023-07-20T14:11:53;1.60;;;1.15;;
24407;SDS011;12542;50.924;4.516;2023-07-20T14:14:18;2.22;;;1.33;;
24407;SDS011;12542;50.924;4.516;2023-07-20T14:16:44;1.73;;;1.02;;
24407;SDS011;12542;50.924;4.516;2023-07-20T14:19:10;2.75;;;1.10;;
24407;SDS011;12542;50.924;4.516;2023-07-20T14:21:36;1.63;;;0.98;;
24407;SDS011;12542;50.924;4.516;2023-07-20T14:24:01;1.45;;;1.20;;
24407;SDS011;12542;50.924;4.516;2023-07-20T14:26:28;3.35;;;1.20;;
24407;SDS011;12542;50.924;4.516;2023-07-20T14:28:53;2.67;;;1.30;;
24407;SDS011;12542;50.924;4.516;2023-07-20T14:31:19;2.33;;;1.25;;
24407;SDS011;12542;50.924;4.516;2023-07-20T14:33:45;6.00;;;1.27;;
24407;SDS011;12542;50.924;4.516;2023-07-20T14:36:11;2.45;;;1.17;;
24407;SDS011;12542;50.924;4.516;2023-07-20T14:38:37;3.58;;;1.38;;
24407;SDS011;12542;50.924;4.516;2023-07-20T14:41:03;2.80;;;1.38;;
24407;SDS011;12542;50.924;4.516;2023-07-20T14:43:30;3.78;;;1.20;;
24407;SDS011;12542;50.924;4.516;2023-07-20T14:45:57;2.45;;;1.80;;
24407;SDS011;12542;50.924;4.516;2023-07-20T14:48:23;4.38;;;1.80;;
24407;SDS011;12542;50.924;4.516;2023-07-20T14:50:49;2.17;;;1.40;;
24407;SDS011;12542;50.924;4.516;2023-07-20T14:53:14;1.52;;;1.15;;
24407;SDS011;12542;50.924;4.516;2023-07-20T14:55:41;1.98;;;1.40;;
24407;SDS011;12542;50.924;4.516;2023-07-20T14:58:07;2.10;;;1.40;;
24407;SDS011;12542;50.924;4.516;2023-07-20T15:00:35;2.90;;;1.50;;
24407;SDS011;12542;50.924;4.516;2023-07-20T15:03:00;2.50;;;1.60;;
24407;SDS011;12542;50.924;4.516;2023-07-20T15:05:26;2.00;;;1.50;;
24407;SDS011;12542;50.924;4.516;2023-07-20T15:07:52;2.70;;;1.50;;
24407;SDS011;12542;50.924;4.516;2023-07-20T15:10:18;1.92;;;1.20;;
24407;SDS011;12542;50.924;4.516;2023-07-20T15:12:44;1.77;;;1.17;;
24407;SDS011;12542;50.924;4.516;2023-07-20T15:15:10;2.08;;;1.33;;
24407;SDS011;12542;50.924;4.516;2023-07-20T15:17:41;1.98;;;1.20;;